Time;durP1;ratioP1;P1;durP2;ratioP2;P2;SDS_P1;SDS_P2;PMS_P1;PMS_P2;Temp;Humidity;BMP_temperature;BMP_pressure;BME280_temperature;BME280_humidity;BME280_pressure;Samples;Min_cycle;Max_cycle;Signal;HPM_P1;HPM_P2
2023/05/28 00:01:03;;;;;;;20.88;9.80;;;10.90;99.90;;;;;;5114097;27;20849;-87
2023/05/28 00:03:31;;;;;;;26.13;10.80;;;10.80;99.90;;;;;;5130430;27;20397;-87
2023/05/28 00:05:57;;;;;;;22.35;11.98;;;10.80;99.90;;;;;;5130652;27;20487;-87
2023/05/28 00:08:23;;;;;;;18.33;9.27;;;10.80;99.90;;;;;;5131083;27;20468;-87
2023/05/28 00:10:49;;;;;;;16.40;8.77;;;10.80;99.90;;;;;;5130522;27;20990;-87
2023/05/28 00:13:17;;;;;;;18.63;9.45;;;10.80;99.90;;;;;;5131188;27;20903;-86
2023/05/28 00:15:44;;;;;;;20.52;10.30;;;10.90;99.90;;;;;;5113009;27;20954;-87
2023/05/28 00:18:11;;;;;;;19.23;9.63;;;10.90;99.90;;;;;;5130507;27;20469;-87
2023/05/28 00:20:38;;;;;;;22.97;11.27;;;11.10;99.90;;;;;;5130306;27;20504;-87
2023/05/28 00:23:03;;;;;;;19.48;10.75;;;10.90;99.90;;;;;;5113327;27;20422;-87
2023/05/28 00:25:29;;;;;;;22.83;10.18;;;11.10;99.90;;;;;;5113336;27;20408;-86
2023/05/28 00:27:55;;;;;;;15.63;8.50;;;10.90;99.90;;;;;;5129211;27;20405;-88
2023/05/28 00:30:23;;;;;;;16.33;8.60;;;10.90;99.90;;;;;;5113492;27;20429;-88
2023/05/28 00:32:49;;;;;;;19.00;9.13;;;11.10;99.90;;;;;;5129794;27;20409;-87
2023/05/28 00:35:14;;;;;;;22.48;10.43;;;10.90;99.90;;;;;;5130664;27;20400;-87
2023/05/28 00:37:40;;;;;;;19.23;9.43;;;11.10;99.90;;;;;;5148226;27;20417;-86
2023/05/28 00:40:07;;;;;;;17.45;8.77;;;10.80;99.90;;;;;;5130294;27;20409;-87
2023/05/28 00:42:33;;;;;;;16.20;8.75;;;10.80;99.90;;;;;;5130052;27;20485;-87
2023/05/28 00:45:00;;;;;;;22.67;10.40;;;10.80;99.90;;;;;;5112909;27;20484;-87
2023/05/28 00:47:26;;;;;;;19.02;8.85;;;10.80;99.90;;;;;;5130495;27;20397;-87
2023/05/28 00:49:55;;;;;;;17.80;8.40;;;10.80;99.90;;;;;;5112162;27;20405;-87
2023/05/28 00:52:21;;;;;;;21.08;9.40;;;10.80;99.90;;;;;;5148824;27;20477;-87
2023/05/28 00:54:48;;;;;;;20.85;9.23;;;10.80;99.90;;;;;;5129227;27;20389;-87
2023/05/28 00:57:15;;;;;;;21.88;9.73;;;10.70;99.90;;;;;;5129822;27;20429;-87
2023/05/28 00:59:42;;;;;;;24.27;11.02;;;10.60;99.90;;;;;;5129366;27;20404;-87
2023/05/28 01:02:08;;;;;;;20.15;9.77;;;10.60;99.90;;;;;;5129568;27;20483;-87
2023/05/28 01:04:35;;;;;;;17.42;9.25;;;10.70;99.90;;;;;;5130408;27;20539;-87
2023/05/28 01:07:01;;;;;;;23.20;10.57;;;10.80;99.90;;;;;;5129213;27;20478;-87
2023/05/28 01:09:27;;;;;;;22.43;11.17;;;10.80;99.90;;;;;;5129996;27;20413;-87
2023/05/28 01:11:54;;;;;;;22.42;11.32;;;10.60;99.90;;;;;;5147634;27;20431;-87
2023/05/28 01:14:20;;;;;;;21.70;11.65;;;10.60;99.90;;;;;;5129957;27;20401;-87
2023/05/28 01:16:49;;;;;;;20.40;10.43;;;10.50;99.90;;;;;;5111641;27;20389;-88
2023/05/28 01:19:21;;;;;;;22.48;10.20;;;10.50;99.90;;;;;;5129400;27;20420;-87
2023/05/28 01:21:58;;;;;;;20.63;9.60;;;10.40;99.90;;;;;;5148485;27;20405;-87
2023/05/28 01:24:24;;;;;;;19.38;8.98;;;10.30;99.90;;;;;;5128605;27;20415;-86
2023/05/28 01:26:50;;;;;;;22.07;9.90;;;10.30;99.90;;;;;;5129412;27;20915;-86
2023/05/28 01:29:17;;;;;;;20.52;8.70;;;10.50;99.90;;;;;;5147454;27;20385;-86
2023/05/28 01:31:43;;;;;;;23.60;9.87;;;10.30;99.90;;;;;;5112270;27;20389;-86
2023/05/28 01:34:12;;;;;;;20.33;10.30;;;10.30;99.90;;;;;;5111995;27;20385;-86
2023/05/28 01:36:57;;;;;;;21.02;9.90;;;10.30;99.90;;;;;;5129170;27;20917;-86
2023/05/28 01:39:26;;;;;;;20.15;9.80;;;10.30;99.90;;;;;;5112232;27;20768;-86
2023/05/28 01:41:53;;;;;;;22.60;10.33;;;10.30;99.90;;;;;;5128461;27;20425;-87
2023/05/28 01:44:19;;;;;;;20.40;9.13;;;10.40;99.90;;;;;;5147780;27;20415;-87
2023/05/28 01:46:49;;;;;;;20.73;10.20;;;10.50;99.90;;;;;;5147120;27;20424;-87
2023/05/28 01:49:15;;;;;;;23.15;10.98;;;10.50;99.90;;;;;;5129102;27;20498;-88
2023/05/28 01:51:41;;;;;;;21.38;9.95;;;10.60;99.90;;;;;;5111573;27;20487;-87
2023/05/28 01:54:06;;;;;;;18.90;9.48;;;10.40;99.90;;;;;;5111959;27;20744;-86
2023/05/28 01:56:32;;;;;;;19.77;9.90;;;10.40;99.90;;;;;;5112299;27;20453;-87
2023/05/28 01:58:58;;;;;;;22.52;10.40;;;10.40;99.90;;;;;;5128158;27;20539;-87
2023/05/28 02:01:33;;;;;;;20.63;10.57;;;10.40;99.90;;;;;;5112274;27;20392;-87
2023/05/28 02:03:59;;;;;;;22.63;10.90;;;10.50;99.90;;;;;;5111721;27;20416;-87
2023/05/28 02:06:29;;;;;;;24.40;11.43;;;10.50;99.90;;;;;;5129172;27;20413;-87
2023/05/28 02:08:54;;;;;;;20.50;9.70;;;10.60;99.90;;;;;;5111538;27;20389;-86
2023/05/28 02:11:21;;;;;;;22.90;10.27;;;10.40;99.90;;;;;;5128608;27;20884;-87
2023/05/28 02:13:48;;;;;;;23.90;11.57;;;10.30;99.90;;;;;;5111849;27;20478;-87
2023/05/28 02:16:17;;;;;;;24.83;12.05;;;10.20;99.90;;;;;;5111019;27;20393;-86
2023/05/28 02:18:47;;;;;;;23.35;11.55;;;10.20;99.90;;;;;;5111692;27;20408;-87
2023/05/28 02:21:13;;;;;;;31.57;13.60;;;10.50;99.90;;;;;;5128072;27;20487;-87
2023/05/28 02:23:47;;;;;;;20.27;10.77;;;10.50;99.90;;;;;;5111262;27;20870;-87
2023/05/28 02:26:13;;;;;;;21.27;10.05;;;10.10;99.90;;;;;;5111222;27;20453;-86
2023/05/28 02:28:39;;;;;;;19.45;10.40;;;10.10;99.90;;;;;;5111334;27;20468;-86
2023/05/28 02:31:05;;;;;;;21.30;10.73;;;10.10;99.90;;;;;;5128763;27;20581;-87
2023/05/28 02:33:32;;;;;;;20.30;10.60;;;10.00;99.90;;;;;;5128345;27;20902;-87
2023/05/28 02:35:58;;;;;;;24.70;12.18;;;10.20;99.90;;;;;;5128964;27;20918;-87
2023/05/28 02:38:23;;;;;;;20.87;11.50;;;10.00;99.90;;;;;;5127837;27;20425;-87
2023/05/28 02:40:49;;;;;;;21.88;10.77;;;10.00;99.90;;;;;;5128423;27;20401;-87
2023/05/28 02:43:14;;;;;;;26.45;11.98;;;10.10;99.90;;;;;;5128135;27;20408;-87
2023/05/28 02:45:40;;;;;;;25.70;12.67;;;10.00;99.90;;;;;;5111173;27;20407;-87
2023/05/28 02:48:06;;;;;;;18.50;10.65;;;9.90;99.90;;;;;;5128471;27;20401;-87
2023/05/28 02:50:31;;;;;;;23.03;11.63;;;9.90;99.90;;;;;;5128273;27;20494;-86
2023/05/28 02:52:57;;;;;;;23.98;11.85;;;10.00;99.90;;;;;;5115912;27;20389;-87
2023/05/28 02:55:22;;;;;;;22.67;12.00;;;9.90;99.90;;;;;;5131734;27;20405;-87
2023/05/28 02:57:48;;;;;;;20.17;10.60;;;9.90;99.90;;;;;;5132164;27;20452;-87
2023/05/28 03:00:14;;;;;;;23.17;12.13;;;9.90;99.90;;;;;;5131346;27;20476;-87
2023/05/28 03:02:39;;;;;;;24.75;11.43;;;9.90;99.90;;;;;;5115019;27;21062;-87
2023/05/28 03:05:05;;;;;;;21.27;10.80;;;9.90;99.90;;;;;;5115065;27;20407;-87
2023/05/28 03:07:31;;;;;;;23.40;11.23;;;9.80;99.90;;;;;;5115157;27;20429;-87
2023/05/28 03:09:57;;;;;;;21.00;11.67;;;9.90;99.90;;;;;;5150833;27;20748;-88
2023/05/28 03:12:23;;;;;;;20.93;10.93;;;9.90;99.90;;;;;;5114399;27;20510;-87
2023/05/28 03:14:49;;;;;;;20.17;10.35;;;9.90;99.90;;;;;;5114968;27;20413;-86
2023/05/28 03:17:15;;;;;;;21.63;12.18;;;10.10;99.90;;;;;;5114393;27;20488;-87
2023/05/28 03:19:40;;;;;;;22.25;11.20;;;9.80;99.90;;;;;;5114755;27;20481;-88
2023/05/28 03:22:06;;;;;;;22.73;12.20;;;9.80;99.90;;;;;;5131673;27;20397;-87
2023/05/28 03:24:34;;;;;;;19.07;12.30;;;9.70;99.90;;;;;;5131532;27;20401;-86
2023/05/28 03:27:02;;;;;;;21.25;11.20;;;9.70;99.90;;;;;;5131710;27;20925;-86
2023/05/28 03:29:28;;;;;;;23.17;12.20;;;9.70;99.90;;;;;;5114215;27;20401;-86
2023/05/28 03:31:53;;;;;;;20.80;10.53;;;9.70;99.90;;;;;;5132008;27;20385;-87
2023/05/28 03:34:20;;;;;;;24.33;11.93;;;9.70;99.90;;;;;;5114163;27;20389;-87
2023/05/28 03:36:46;;;;;;;25.73;13.30;;;9.60;99.90;;;;;;5131649;27;20412;-87
2023/05/28 03:39:12;;;;;;;25.67;14.32;;;9.90;99.90;;;;;;5130814;27;20684;-87
2023/05/28 03:41:37;;;;;;;18.37;11.17;;;9.70;99.90;;;;;;5131476;27;20799;-87
2023/05/28 03:44:05;;;;;;;18.27;10.50;;;9.60;99.90;;;;;;5113672;27;20555;-87
2023/05/28 03:46:30;;;;;;;19.42;11.73;;;9.50;99.90;;;;;;5131714;27;20967;-87
2023/05/28 03:48:56;;;;;;;25.52;12.98;;;9.80;99.90;;;;;;5131938;27;20503;-87
2023/05/28 03:51:23;;;;;;;20.70;11.10;;;9.60;99.90;;;;;;5113580;27;20412;-87
2023/05/28 03:53:49;;;;;;;20.90;11.05;;;9.50;99.90;;;;;;5131967;27;20711;-88
2023/05/28 03:56:16;;;;;;;22.85;12.02;;;9.50;99.90;;;;;;5130529;27;20490;-87
2023/05/28 03:58:42;;;;;;;18.47;10.40;;;9.70;99.90;;;;;;5113561;27;20424;-87
2023/05/28 04:01:09;;;;;;;22.47;12.00;;;9.60;99.90;;;;;;5113759;27;20902;-87
2023/05/28 04:03:34;;;;;;;24.10;11.07;;;9.60;99.90;;;;;;5129548;27;20407;-88
2023/05/28 04:06:01;;;;;;;22.77;12.10;;;9.60;99.90;;;;;;5131222;27;20409;-87
2023/05/28 04:08:27;;;;;;;20.25;11.45;;;9.60;99.90;;;;;;5113485;27;20385;-87
2023/05/28 04:10:52;;;;;;;25.67;12.52;;;9.60;99.90;;;;;;5114198;27;20465;-87
2023/05/28 04:13:18;;;;;;;21.30;12.63;;;9.60;99.90;;;;;;5113203;27;20493;-87
2023/05/28 04:15:43;;;;;;;17.30;10.45;;;9.60;99.90;;;;;;5130924;27;20482;-87
2023/05/28 04:18:09;;;;;;;20.13;11.60;;;9.80;99.90;;;;;;5129857;27;20646;-87
2023/05/28 04:20:38;;;;;;;22.53;11.37;;;9.70;99.90;;;;;;5113892;27;20397;-87
2023/05/28 04:23:03;;;;;;;18.50;10.55;;;9.70;99.90;;;;;;5113265;27;20405;-87
2023/05/28 04:25:29;;;;;;;20.67;12.17;;;9.80;99.90;;;;;;5130450;27;20504;-87
2023/05/28 04:27:56;;;;;;;22.50;12.07;;;9.90;99.90;;;;;;5113613;27;20468;-86
2023/05/28 04:30:23;;;;;;;21.75;11.82;;;9.90;99.90;;;;;;5130018;27;20454;-86
2023/05/28 04:32:52;;;;;;;24.92;12.68;;;9.90;99.90;;;;;;5130762;27;20405;-87
2023/05/28 04:35:18;;;;;;;19.60;11.02;;;9.90;99.90;;;;;;5113118;27;20408;-87
2023/05/28 04:37:44;;;;;;;21.27;11.60;;;9.90;99.90;;;;;;5113487;27;20420;-87
2023/05/28 04:40:11;;;;;;;20.20;11.80;;;10.30;99.90;;;;;;5130012;27;20418;-86
2023/05/28 04:42:41;;;;;;;22.23;12.45;;;10.00;99.90;;;;;;5130383;27;20397;-87
2023/05/28 04:45:08;;;;;;;22.23;12.10;;;9.90;99.90;;;;;;5113446;27;20393;-87
2023/05/28 04:47:34;;;;;;;22.65;11.85;;;9.90;99.90;;;;;;5130034;27;20397;-87
2023/05/28 04:50:03;;;;;;;22.85;12.88;;;10.00;99.90;;;;;;5113648;27;20446;-88
2023/05/28 04:52:30;;;;;;;25.48;12.45;;;10.00;99.90;;;;;;5129435;27;20406;-87
2023/05/28 04:54:56;;;;;;;23.33;11.70;;;10.10;99.90;;;;;;5130363;27;20823;-88
2023/05/28 04:57:22;;;;;;;24.70;13.27;;;10.30;99.90;;;;;;5129755;27;20491;-87
2023/05/28 04:59:49;;;;;;;18.35;12.30;;;10.50;99.90;;;;;;5113144;27;20435;-87
2023/05/28 05:02:18;;;;;;;22.87;11.50;;;10.70;99.90;;;;;;5129710;27;20435;-87
2023/05/28 05:04:45;;;;;;;20.92;11.30;;;10.90;99.90;;;;;;5129452;27;20397;-87
2023/05/28 05:07:13;;;;;;;17.90;9.80;;;11.10;99.90;;;;;;5130150;27;20385;-86
2023/05/28 05:09:39;;;;;;;20.70;9.98;;;11.30;99.90;;;;;;5112104;27;20752;-88
2023/05/28 05:12:05;;;;;;;18.33;10.47;;;11.50;99.90;;;;;;5112743;27;20389;-87
2023/05/28 05:14:31;;;;;;;20.00;9.48;;;11.70;99.90;;;;;;5147201;27;20385;-89
2023/05/28 05:16:57;;;;;;;19.15;9.77;;;11.80;99.90;;;;;;5112700;27;20404;-87
2023/05/28 05:19:23;;;;;;;21.73;9.83;;;12.00;99.90;;;;;;5112127;27;20412;-87
2023/05/28 05:21:49;;;;;;;18.90;9.35;;;12.20;99.90;;;;;;5112062;27;20408;-88
2023/05/28 05:24:14;;;;;;;19.35;8.82;;;12.40;99.90;;;;;;5129653;27;20409;-88
2023/05/28 05:26:40;;;;;;;17.65;8.48;;;12.50;99.90;;;;;;5128672;27;20400;-88
2023/05/28 05:29:06;;;;;;;16.03;7.60;;;12.60;99.90;;;;;;5112497;27;20389;-87
2023/05/28 05:31:31;;;;;;;17.40;7.80;;;12.90;99.90;;;;;;5128869;27;20400;-88
2023/05/28 05:33:57;;;;;;;13.17;6.63;;;13.00;99.90;;;;;;5129219;27;20415;-88
2023/05/28 05:36:22;;;;;;;15.55;6.93;;;13.10;99.90;;;;;;5128822;27;20390;-87
2023/05/28 05:38:48;;;;;;;12.57;5.80;;;13.30;99.90;;;;;;5112094;27;20816;-89
2023/05/28 05:41:14;;;;;;;14.43;6.05;;;13.50;99.90;;;;;;5112257;27;20396;-87
2023/05/28 05:43:39;;;;;;;14.50;5.80;;;13.60;99.90;;;;;;5111680;27;20401;-89
2023/05/28 05:46:05;;;;;;;11.82;5.70;;;13.70;99.90;;;;;;5112532;27;20401;-88
2023/05/28 05:48:31;;;;;;;15.27;5.90;;;13.90;99.90;;;;;;5111388;27;20401;-87
2023/05/28 05:50:58;;;;;;;16.77;6.20;;;14.00;99.90;;;;;;5112345;27;20412;-88
2023/05/28 05:53:24;;;;;;;17.23;6.60;;;14.20;99.90;;;;;;5111736;27;20401;-88
2023/05/28 05:55:50;;;;;;;13.43;6.07;;;14.30;99.90;;;;;;5128942;27;20423;-88
2023/05/28 05:58:16;;;;;;;17.55;6.55;;;14.40;99.90;;;;;;5111508;27;20779;-87
2023/05/28 06:00:42;;;;;;;13.68;6.53;;;14.40;99.90;;;;;;5147351;27;20386;-88
2023/05/28 06:03:08;;;;;;;15.02;7.25;;;14.80;99.90;;;;;;5128830;27;20381;-87
2023/05/28 06:05:34;;;;;;;16.90;6.75;;;14.80;99.90;;;;;;5111750;27;20728;-88
2023/05/28 06:08:02;;;;;;;18.33;7.55;;;14.80;99.90;;;;;;5112691;27;20923;-90
2023/05/28 06:10:29;;;;;;;17.30;7.22;;;14.80;99.90;;;;;;5111190;27;20393;-88
2023/05/28 06:12:55;;;;;;;16.45;6.95;;;14.80;99.90;;;;;;5111803;27;20522;-87
2023/05/28 06:15:21;;;;;;;15.60;6.90;;;14.90;99.90;;;;;;5111291;27;20389;-90
2023/05/28 06:17:47;;;;;;;15.02;6.40;;;15.00;99.90;;;;;;5111964;27;20416;-88
2023/05/28 06:20:13;;;;;;;19.02;6.43;;;15.20;99.90;;;;;;5129229;27;20747;-87
2023/05/28 06:22:39;;;;;;;14.68;5.70;;;15.50;99.90;;;;;;5111236;27;20416;-88
2023/05/28 06:25:07;;;;;;;14.07;5.43;;;15.50;99.90;;;;;;5129136;27;20405;-88
2023/05/28 06:27:33;;;;;;;13.82;5.63;;;15.60;99.90;;;;;;5131858;27;20404;-90
2023/05/28 06:29:58;;;;;;;14.47;5.57;;;15.70;99.90;;;;;;5116333;27;20404;-88
2023/05/28 06:32:24;;;;;;;12.52;5.18;;;15.70;99.90;;;;;;5115665;27;20435;-89
2023/05/28 06:34:50;;;;;;;13.43;5.10;;;15.80;99.90;;;;;;5116365;27;20401;-90
2023/05/28 06:37:15;;;;;;;16.30;5.68;;;15.70;99.90;;;;;;5115695;27;20415;-89
2023/05/28 06:39:41;;;;;;;12.00;5.50;;;15.90;99.90;;;;;;5115438;27;20419;-89
2023/05/28 06:42:07;;;;;;;13.23;5.07;;;16.10;99.90;;;;;;5115999;27;20487;-89
2023/05/28 06:44:33;;;;;;;15.48;5.80;;;16.00;99.90;;;;;;5116082;27;20797;-90
2023/05/28 06:46:59;;;;;;;11.43;5.57;;;16.60;99.90;;;;;;5115838;27;20401;-89
2023/05/28 06:49:25;;;;;;;13.37;5.83;;;16.30;99.90;;;;;;5115602;27;20477;-89
2023/05/28 06:51:51;;;;;;;13.43;5.40;;;16.30;99.90;;;;;;5115880;27;20397;-88
2023/05/28 06:54:16;;;;;;;12.98;5.25;;;16.50;99.90;;;;;;5115181;27;20418;-90
2023/05/28 06:56:42;;;;;;;10.33;4.47;;;16.70;99.90;;;;;;5116097;27;20393;-90
2023/05/28 06:59:08;;;;;;;11.05;4.30;;;16.70;99.90;;;;;;5115236;27;20488;-89
2023/05/28 07:01:33;;;;;;;12.13;4.60;;;16.80;99.90;;;;;;5115537;27;20520;-88
2023/05/28 07:03:59;;;;;;;11.70;4.90;;;16.80;99.90;;;;;;5115990;27;20415;-89
2023/05/28 07:06:25;;;;;;;9.13;3.50;;;16.90;99.90;;;;;;5115069;27;20401;-89
2023/05/28 07:08:50;;;;;;;9.15;3.28;;;17.10;99.90;;;;;;5115599;27;20988;-89
2023/05/28 07:11:16;;;;;;;8.02;3.30;;;17.00;99.90;;;;;;5114986;27;20500;-90
2023/05/28 07:13:42;;;;;;;8.30;3.47;;;17.10;99.90;;;;;;5115305;27;20389;-90
2023/05/28 07:16:08;;;;;;;8.77;3.00;;;17.20;99.90;;;;;;5132195;27;20389;-87
2023/05/28 07:18:33;;;;;;;7.27;2.63;;;17.40;99.90;;;;;;5114911;27;20953;-89
2023/05/28 07:20:59;;;;;;;7.95;3.17;;;17.40;98.00;;;;;;5115271;27;20495;-88
2023/05/28 07:23:25;;;;;;;6.55;2.42;;;17.40;99.30;;;;;;5114344;27;20462;-89
2023/05/28 07:25:50;;;;;;;8.40;2.80;;;17.60;92.40;;;;;;5115620;27;20405;-88
2023/05/28 07:28:16;;;;;;;5.57;2.00;;;17.80;96.90;;;;;;5114455;27;20771;-88
2023/05/28 07:30:42;;;;;;;5.57;2.10;;;17.60;90.40;;;;;;5132213;27;20389;-89
2023/05/28 07:33:08;;;;;;;5.78;2.28;;;17.90;90.40;;;;;;5115112;27;20396;-89
2023/05/28 07:35:35;;;;;;;5.25;2.15;;;17.70;90.90;;;;;;5115029;27;20971;-90
2023/05/28 07:38:02;;;;;;;5.28;2.03;;;17.80;88.40;;;;;;5114225;27;20425;-89
2023/05/28 07:40:27;;;;;;;6.35;2.45;;;17.70;87.40;;;;;;5115216;27;20389;-90
2023/05/28 07:42:53;;;;;;;6.43;2.17;;;18.10;84.00;;;;;;5115460;27;20898;-89
2023/05/28 07:45:19;;;;;;;7.27;2.50;;;17.90;85.10;;;;;;5131701;27;20393;-89
2023/05/28 07:47:45;;;;;;;6.05;2.47;;;18.00;81.50;;;;;;5114901;27;20895;-88
2023/05/28 07:50:11;;;;;;;6.82;2.47;;;18.10;81.10;;;;;;5131828;27;20405;-90
2023/05/28 07:52:39;;;;;;;7.45;2.60;;;18.40;70.40;;;;;;5114619;27;20389;-88
2023/05/28 07:55:05;;;;;;;5.20;2.25;;;18.10;59.20;;;;;;5114004;27;20845;-90
2023/05/28 07:57:31;;;;;;;6.07;2.47;;;18.00;68.00;;;;;;5114322;27;20464;-89
2023/05/28 07:59:56;;;;;;;6.18;2.60;;;18.20;73.10;;;;;;5115071;27;20836;-88
2023/05/28 08:02:22;;;;;;;6.80;2.30;;;18.40;75.70;;;;;;5131492;27;20499;-90
2023/05/28 08:04:49;;;;;;;4.78;2.17;;;18.40;70.00;;;;;;5114559;27;20396;-89
2023/05/28 08:07:15;;;;;;;6.77;2.33;;;18.80;69.70;;;;;;5113842;27;20412;-90
2023/05/28 08:09:41;;;;;;;6.95;2.28;;;18.60;63.70;;;;;;5114091;27;20890;-89
2023/05/28 08:12:07;;;;;;;6.78;2.67;;;18.90;66.70;;;;;;5130943;27;20401;-88
2023/05/28 08:14:33;;;;;;;7.55;2.65;;;18.90;61.90;;;;;;5114494;27;20871;-89
2023/05/28 08:16:59;;;;;;;5.82;2.67;;;19.20;68.60;;;;;;5114361;27;20409;-90
2023/05/28 08:19:26;;;;;;;5.60;2.67;;;19.10;76.20;;;;;;5113991;27;20434;-89
2023/05/28 08:21:52;;;;;;;6.65;3.05;;;19.50;65.30;;;;;;5114588;27;20435;-90
2023/05/28 08:24:18;;;;;;;7.13;3.53;;;19.60;65.00;;;;;;5127002;27;20520;-89
2023/05/28 08:26:44;;;;;;;5.57;2.80;;;19.50;63.50;;;;;;5110927;27;20403;-89
2023/05/28 08:29:10;;;;;;;6.78;3.28;;;19.50;61.60;;;;;;5109932;27;20394;-89
2023/05/28 08:31:36;;;;;;;6.43;3.37;;;19.60;60.80;;;;;;5110400;27;20776;-90
2023/05/28 08:34:02;;;;;;;7.10;3.58;;;19.70;62.80;;;;;;5109813;27;20394;-90
2023/05/28 08:36:27;;;;;;;6.67;3.70;;;19.70;64.80;;;;;;5110450;27;20931;-89
2023/05/28 08:38:53;;;;;;;6.82;3.47;;;19.90;57.50;;;;;;5109955;27;21054;-89
2023/05/28 08:41:19;;;;;;;7.95;3.78;;;19.80;61.80;;;;;;5109780;27;20410;-89
2023/05/28 08:43:45;;;;;;;6.83;3.53;;;19.90;66.40;;;;;;5110745;27;20417;-90
2023/05/28 08:46:11;;;;;;;7.50;3.83;;;20.20;59.20;;;;;;5109720;27;20454;-89
2023/05/28 08:48:40;;;;;;;7.32;4.05;;;19.90;63.40;;;;;;5109834;28;20749;-88
2023/05/28 08:51:06;;;;;;;6.67;3.80;;;20.00;60.00;;;;;;5109536;27;20395;-88
2023/05/28 08:53:39;;;;;;;7.32;3.88;;;20.10;63.30;;;;;;5109964;27;20403;-89
2023/05/28 08:56:06;;;;;;;7.63;4.22;;;20.00;56.60;;;;;;5109735;27;20402;-90
2023/05/28 08:58:36;;;;;;;6.78;3.78;;;20.10;56.80;;;;;;5109084;27;20426;-88
2023/05/28 09:01:06;;;;;;;6.77;4.30;;;20.20;55.60;;;;;;5127280;27;20455;-90
2023/05/28 09:03:33;;;;;;;8.45;4.10;;;20.30;55.60;;;;;;5109695;27;20462;-90
2023/05/28 09:05:59;;;;;;;8.00;4.60;;;20.20;57.80;;;;;;5109961;27;20391;-90
2023/05/28 09:08:24;;;;;;;7.93;5.00;;;20.50;56.00;;;;;;5109549;27;20480;-88
2023/05/28 09:10:50;;;;;;;6.70;4.13;;;20.70;53.40;;;;;;5110046;27;20403;-90
2023/05/28 09:13:19;;;;;;;8.30;4.05;;;20.50;54.40;;;;;;5109977;27;20873;-89
2023/05/28 09:15:52;;;;;;;7.40;4.57;;;20.50;57.70;;;;;;5109485;27;20489;-89
2023/05/28 09:18:21;;;;;;;8.55;4.90;;;20.50;57.10;;;;;;5109721;27;20422;-90
2023/05/28 09:20:51;;;;;;;7.13;5.05;;;20.60;52.90;;;;;;5108655;27;20406;-88
2023/05/28 09:23:18;;;;;;;7.82;4.82;;;20.90;53.70;;;;;;5109735;27;20419;-89
2023/05/28 09:25:44;;;;;;;8.82;5.30;;;20.90;52.60;;;;;;5112127;27;20416;-91
2023/05/28 09:28:14;;;;;;;8.65;5.18;;;20.90;49.30;;;;;;5129966;27;20439;-90
2023/05/28 09:30:41;;;;;;;8.10;5.80;;;21.30;52.90;;;;;;5112864;27;20429;-89
2023/05/28 09:33:07;;;;;;;8.32;5.90;;;21.10;47.80;;;;;;5113048;27;20442;-89
2023/05/28 09:35:34;;;;;;;9.32;5.60;;;21.20;50.30;;;;;;5113422;27;20485;-90
2023/05/28 09:38:04;;;;;;;7.72;5.25;;;21.30;51.60;;;;;;5112384;27;20823;-90
2023/05/28 09:40:30;;;;;;;7.15;5.60;;;21.20;49.30;;;;;;5112912;27;20799;-90
2023/05/28 09:42:56;;;;;;;9.13;5.82;;;21.50;51.90;;;;;;5128997;27;20389;-89
2023/05/28 09:45:25;;;;;;;8.57;5.33;;;21.50;48.40;;;;;;5112091;27;20405;-90
2023/05/28 09:47:51;;;;;;;8.63;5.43;;;21.50;49.70;;;;;;5112017;27;20401;-89
2023/05/28 09:50:17;;;;;;;7.68;5.18;;;21.70;50.10;;;;;;5112685;27;20494;-88
2023/05/28 09:52:45;;;;;;;7.60;5.10;;;21.90;48.60;;;;;;5113081;27;20409;-89
2023/05/28 09:55:14;;;;;;;7.35;4.95;;;21.90;49.70;;;;;;5111867;27;20389;-89
2023/05/28 09:57:45;;;;;;;7.63;5.20;;;22.20;48.30;;;;;;5112225;27;20434;-89
2023/05/28 10:00:21;;;;;;;7.45;5.13;;;22.40;50.10;;;;;;5111789;27;20552;-89
2023/05/28 10:03:12;;;;;;;6.50;4.63;;;22.40;50.20;;;;;;5111870;27;20402;-89
2023/05/28 10:05:42;;;;;;;8.17;5.17;;;22.80;43.90;;;;;;5112068;27;20397;-89
2023/05/28 10:08:12;;;;;;;6.53;4.60;;;22.90;43.30;;;;;;5112095;27;20846;-90
2023/05/28 10:10:40;;;;;;;7.47;4.35;;;22.80;43.20;;;;;;5112184;27;20708;-90
2023/05/28 10:13:09;;;;;;;5.57;3.70;;;23.00;42.70;;;;;;5111831;27;20393;-89
2023/05/28 10:15:36;;;;;;;6.78;3.58;;;23.10;41.80;;;;;;5129607;27;20756;-90
2023/05/28 10:18:03;;;;;;;6.22;3.35;;;23.20;43.40;;;;;;5111741;27;20421;-88
2023/05/28 10:20:29;;;;;;;4.20;3.00;;;23.40;43.80;;;;;;5111785;27;20392;-90
2023/05/28 10:22:55;;;;;;;5.50;3.10;;;23.70;43.30;;;;;;5112278;27;20506;-90
2023/05/28 10:25:22;;;;;;;4.38;2.72;;;23.80;41.60;;;;;;5111274;27;20439;-90
2023/05/28 10:27:48;;;;;;;5.10;2.80;;;23.80;43.40;;;;;;5112216;27;20468;-89
2023/05/28 10:30:34;;;;;;;4.45;2.42;;;24.00;40.70;;;;;;5111825;27;20836;-90
2023/05/28 10:33:03;;;;;;;4.90;2.30;;;24.00;41.10;;;;;;5111901;27;20397;-90
2023/05/28 10:35:28;;;;;;;4.80;2.28;;;24.20;42.90;;;;;;5111971;27;20401;-89
2023/05/28 10:38:08;;;;;;;5.17;2.17;;;24.50;41.80;;;;;;5128435;27;20421;-89
2023/05/28 10:40:39;;;;;;;4.90;2.22;;;24.80;42.10;;;;;;5112147;27;20488;-90
2023/05/28 10:43:05;;;;;;;5.00;2.17;;;25.10;41.20;;;;;;5111243;27;20453;-90
2023/05/28 10:45:38;;;;;;;5.27;2.53;;;25.30;40.30;;;;;;5112055;27;20389;-90
2023/05/28 10:48:04;;;;;;;5.18;2.15;;;25.60;42.30;;;;;;5111298;27;20389;-90
2023/05/28 10:50:30;;;;;;;5.57;2.45;;;25.80;40.50;;;;;;5111417;27;20481;-91
2023/05/28 10:53:07;;;;;;;5.23;2.00;;;26.00;39.10;;;;;;5111960;27;20505;-88
2023/05/28 10:55:52;;;;;;;5.22;2.10;;;26.40;40.70;;;;;;5110985;27;20400;-89
2023/05/28 10:58:25;;;;;;;5.97;2.20;;;26.50;39.90;;;;;;5128968;27;20942;-89
2023/05/28 11:00:51;;;;;;;4.68;2.03;;;26.30;41.70;;;;;;5127771;27;20409;-90
2023/05/28 11:03:16;;;;;;;4.23;1.93;;;26.40;41.30;;;;;;5111362;27;20400;-90
2023/05/28 11:05:42;;;;;;;4.85;1.85;;;26.30;39.80;;;;;;5110954;27;20401;-89
2023/05/28 11:08:08;;;;;;;4.65;1.90;;;26.30;41.30;;;;;;5128675;27;20392;-90
2023/05/28 11:10:34;;;;;;;5.27;2.10;;;26.30;41.30;;;;;;5128716;27;20412;-88
2023/05/28 11:13:00;;;;;;;5.22;1.70;;;26.60;42.70;;;;;;5130279;27;20449;-89
2023/05/28 11:15:25;;;;;;;4.63;1.83;;;26.90;42.00;;;;;;5115626;27;20405;-89
2023/05/28 11:17:51;;;;;;;5.60;2.08;;;27.10;42.40;;;;;;5113932;27;20436;-90
2023/05/28 11:20:21;;;;;;;5.20;2.00;;;27.50;41.10;;;;;;5132439;27;20393;-90
2023/05/28 11:22:47;;;;;;;6.72;2.50;;;27.40;40.80;;;;;;5131565;27;20405;-89
2023/05/28 11:25:13;;;;;;;4.65;2.33;;;27.10;41.20;;;;;;5131888;27;20408;-91
2023/05/28 11:27:40;;;;;;;6.22;2.40;;;26.90;42.60;;;;;;5115116;27;20400;-90
2023/05/28 11:30:11;;;;;;;4.88;2.35;;;27.30;41.40;;;;;;5114460;27;20424;-89
2023/05/28 11:32:39;;;;;;;6.20;2.42;;;27.20;43.00;;;;;;5131893;27;21638;-90
2023/05/28 11:35:05;;;;;;;6.07;2.60;;;27.00;40.60;;;;;;5114518;27;20441;-91
2023/05/28 11:37:33;;;;;;;6.18;2.42;;;27.00;40.90;;;;;;5114895;27;20405;-89
2023/05/28 11:40:00;;;;;;;5.47;2.38;;;27.10;40.60;;;;;;5114213;27;20414;-91
2023/05/28 11:42:28;;;;;;;6.80;2.53;;;27.30;42.10;;;;;;5132199;27;20393;-89
2023/05/28 11:44:54;;;;;;;6.00;2.60;;;27.20;41.20;;;;;;5114380;27;20404;-90
2023/05/28 11:47:20;;;;;;;8.10;2.70;;;27.40;41.90;;;;;;5114441;27;20401;-91
2023/05/28 11:49:46;;;;;;;5.93;2.65;;;27.80;43.00;;;;;;5150796;27;20444;-87
2023/05/28 11:52:13;;;;;;;5.95;2.67;;;28.30;41.30;;;;;;5131052;27;20385;-90
2023/05/28 11:54:41;;;;;;;5.95;2.60;;;28.00;41.50;;;;;;5114943;27;20725;-90
2023/05/28 11:57:07;;;;;;;7.40;2.60;;;27.90;41.30;;;;;;5113868;27;20763;-90
2023/05/28 11:59:34;;;;;;;6.85;2.80;;;27.80;41.20;;;;;;5114182;27;20979;-90
2023/05/28 12:02:16;;;;;;;6.20;2.95;;;27.60;42.80;;;;;;5113855;27;20771;-89
2023/05/28 12:05:02;;;;;;;8.15;2.70;;;27.50;43.40;;;;;;5131474;27;20760;-90
2023/05/28 12:07:35;;;;;;;6.70;2.73;;;27.70;41.20;;;;;;5114419;27;20438;-90
2023/05/28 12:10:09;;;;;;;6.67;2.70;;;27.80;41.30;;;;;;5113628;27;20484;-88
2023/05/28 12:12:46;;;;;;;6.40;2.70;;;27.70;42.20;;;;;;5114358;27;20408;-88
2023/05/28 12:15:12;;;;;;;6.65;2.25;;;28.00;42.40;;;;;;5113742;27;20453;-86
2023/05/28 12:17:40;;;;;;;8.05;2.70;;;27.70;39.00;;;;;;5130860;27;20397;-87
2023/05/28 12:20:15;;;;;;;6.90;2.25;;;27.80;39.90;;;;;;5114183;27;20444;-87
2023/05/28 12:22:41;;;;;;;8.48;2.08;;;27.60;40.30;;;;;;5113037;27;20504;-88
2023/05/28 12:25:07;;;;;;;5.65;2.00;;;27.40;43.40;;;;;;5130134;27;20927;-89
2023/05/28 12:27:33;;;;;;;8.05;2.40;;;27.70;41.80;;;;;;5130466;27;20488;-88
2023/05/28 12:29:59;;;;;;;7.70;2.10;;;28.00;40.40;;;;;;5130883;27;20386;-87
2023/05/28 12:32:25;;;;;;;8.25;2.30;;;28.10;40.80;;;;;;5113292;27;20393;-87
2023/05/28 12:34:56;;;;;;;8.88;2.20;;;27.90;39.20;;;;;;5130442;27;20395;-87
2023/05/28 12:37:22;;;;;;;6.50;1.90;;;28.10;42.30;;;;;;5113649;27;20404;-87
2023/05/28 12:39:48;;;;;;;6.43;2.22;;;28.30;40.10;;;;;;5113207;27;20425;-89